Time;durP1;ratioP1;P1;durP2;ratioP2;P2;SDS_P1;SDS_P2;PMS_P1;PMS_P2;Temp;Humidity;BMP_temperature;BMP_pressure;BME280_temperature;BME280_humidity;BME280_pressure;Samples;Min_cycle;Max_cycle;Signal;HPM_P1;HPM_P2
2024/01/04 00:00:04;;;;;;;0.20;0.20;;;;;;;22.67;52.56;97865.66;7394307;19;20018;-51
2024/01/04 00:02:31;;;;;;;0.40;0.10;;;;;;;22.23;53.19;97864.09;7391377;19;20017;-50
2024/01/04 00:04:58;;;;;;;0.20;0.20;;;;;;;21.96;53.89;97874.94;7391005;19;20017;-51
2024/01/04 00:07:24;;;;;;;3.05;0.30;;;;;;;21.59;54.96;97876.50;7394950;19;20093;-50
2024/01/04 00:09:51;;;;;;;8.30;0.43;;;;;;;22.20;53.80;97876.63;7392352;19;20006;-51
2024/01/04 00:12:18;;;;;;;0.57;0.47;;;;;;;22.04;54.84;97872.69;7390448;19;20015;-51
2024/01/04 00:14:44;;;;;;;0.20;0.20;;;;;;;21.85;54.89;97884.09;7392609;19;20045;-51
2024/01/04 00:17:10;;;;;;;0.20;0.20;;;;;;;24.10;51.04;97873.66;7395226;19;20031;-51
2024/01/04 00:19:36;;;;;;;0.10;0.10;;;;;;;24.82;49.23;97876.59;7393472;19;20129;-51
2024/01/04 00:22:02;;;;;;;0.50;0.45;;;;;;;24.51;49.30;97876.88;7394705;19;20010;-52
2024/01/04 00:24:28;;;;;;;0.75;0.75;;;;;;;25.08;48.18;97886.69;7394601;19;20030;-51
2024/01/04 00:26:54;;;;;;;3.05;0.38;;;;;;;25.24;47.53;97890.50;7390064;19;20021;-58
2024/01/04 00:29:20;;;;;;;0.55;0.55;;;;;;;24.75;47.99;97897.56;7392612;19;20021;-59
2024/01/04 00:31:46;;;;;;;1.55;0.52;;;;;;;24.29;49.00;97897.53;7392964;19;20007;-50
2024/01/04 00:34:12;;;;;;;1.17;0.90;;;;;;;24.38;49.53;97903.13;7390638;19;20070;-50
2024/01/04 00:36:39;;;;;;;0.10;0.10;;;;;;;23.49;50.86;97902.41;7395516;19;20327;-50
2024/01/04 00:39:06;;;;;;;0.30;0.30;;;;;;;22.84;52.41;97925.00;7401079;19;20017;-51
2024/01/04 00:41:32;;;;;;;0.45;0.20;;;;;;;23.47;51.18;97918.59;7401797;19;20074;-51
2024/01/04 00:43:59;;;;;;;0.10;0.10;;;;;;;25.41;48.52;97909.25;7397787;19;20466;-51
2024/01/04 00:46:25;;;;;;;0.75;0.30;;;;;;;23.62;51.00;97924.59;7395669;19;20070;-50
2024/01/04 00:48:51;;;;;;;0.43;0.43;;;;;;;22.94;52.22;97928.53;7398647;19;20478;-51
2024/01/04 00:51:17;;;;;;;0.55;0.43;;;;;;;23.08;53.53;97920.97;7396583;19;20010;-59
2024/01/04 00:53:43;;;;;;;1.05;0.50;;;;;;;24.24;51.20;97924.25;7398381;19;20011;-58
2024/01/04 00:56:10;;;;;;;0.20;0.15;;;;;;;23.01;52.83;97933.25;7401142;19;20011;-58
2024/01/04 00:58:36;;;;;;;0.80;0.68;;;;;;;24.43;50.98;97929.72;7397446;19;20017;-59
2024/01/04 01:01:05;;;;;;;0.55;0.30;;;;;;;24.94;49.65;97922.91;7396442;19;20493;-61
2024/01/04 01:03:33;;;;;;;0.10;0.10;;;;;;;25.03;49.41;97930.56;7394856;19;20020;-59
2024/01/04 01:05:59;;;;;;;0.32;0.32;;;;;;;25.39;48.94;97932.69;7398682;19;20015;-59
2024/01/04 01:08:26;;;;;;;0.30;0.30;;;;;;;23.10;52.74;97932.47;7395218;19;20014;-58
2024/01/04 01:10:52;;;;;;;0.10;0.08;;;;;;;23.03;54.08;97944.75;7397415;19;20454;-58
2024/01/04 01:13:20;;;;;;;1.15;0.45;;;;;;;24.80;50.32;97939.88;7397070;19;20010;-58
2024/01/04 01:15:47;;;;;;;0.10;0.10;;;;;;;25.14;49.47;97946.16;7393739;19;20462;-58
2024/01/04 01:18:13;;;;;;;0.52;0.40;;;;;;;25.17;48.96;97950.59;7392810;19;20014;-59
2024/01/04 01:20:39;;;;;;;0.22;0.22;;;;;;;24.79;49.39;97949.78;7393875;19;20018;-58
2024/01/04 01:23:05;;;;;;;0.10;0.10;;;;;;;24.31;51.02;97963.09;7397557;19;20010;-59
2024/01/04 01:25:33;;;;;;;0.47;0.20;;;;;;;25.19;49.09;97962.84;7394801;19;20017;-59
2024/01/04 01:27:59;;;;;;;4.57;0.90;;;;;;;25.37;49.20;97961.06;7395553;19;20019;-58
2024/01/04 01:30:25;;;;;;;0.40;0.20;;;;;;;25.54;48.61;97965.63;7395854;19;20015;-58
2024/01/04 01:32:51;;;;;;;0.10;0.10;;;;;;;25.80;48.06;97957.84;7395791;19;20015;-59
2024/01/04 01:35:18;;;;;;;0.20;0.20;;;;;;;25.63;48.17;97967.59;7397520;19;20007;-59
2024/01/04 01:37:44;;;;;;;2.70;0.35;;;;;;;25.49;48.30;97969.63;7395725;19;20011;-60
2024/01/04 01:40:10;;;;;;;0.20;0.10;;;;;;;25.10;48.76;97963.00;7393881;19;20105;-59
2024/01/04 01:42:36;;;;;;;0.10;0.10;;;;;;;25.19;48.44;97967.78;7394829;19;20818;-59
2024/01/04 01:45:03;;;;;;;0.40;0.32;;;;;;;24.93;48.80;97972.66;7395545;19;20014;-58
2024/01/04 01:47:29;;;;;;;0.10;0.10;;;;;;;22.55;52.30;97979.78;7398204;19;20018;-58
2024/01/04 01:49:56;;;;;;;0.10;0.10;;;;;;;21.21;57.82;97984.13;7394127;19;20014;-59
2024/01/04 01:52:24;;;;;;;0.25;0.25;;;;;;;21.78;57.82;97982.06;7393501;19;20031;-59
2024/01/04 01:54:51;;;;;;;0.10;0.00;;;;;;;22.16;57.53;97991.84;7394631;19;20467;-59
2024/01/04 01:57:17;;;;;;;0.93;0.43;;;;;;;22.34;56.36;97982.56;7393838;19;20033;-59
2024/01/04 01:59:44;;;;;;;0.10;0.00;;;;;;;23.46;54.16;97986.03;7397692;19;20514;-61
2024/01/04 02:02:11;;;;;;;1.00;0.47;;;;;;;21.16;60.37;97993.69;7393934;19;20098;-59
2024/01/04 02:04:37;;;;;;;0.20;0.20;;;;;;;22.01;58.55;97984.44;7395248;19;20018;-58
2024/01/04 02:07:03;;;;;;;0.52;0.43;;;;;;;22.06;57.41;97991.13;7397966;19;20018;-59
2024/01/04 02:09:29;;;;;;;11.70;0.57;;;;;;;21.71;58.87;97997.13;7391687;19;20011;-58
2024/01/04 02:12:06;;;;;;;0.68;0.25;;;;;;;22.80;56.47;98001.38;7392990;19;20387;-59
2024/01/04 02:14:34;;;;;;;0.10;0.08;;;;;;;21.86;57.48;98001.75;7392815;19;20017;-59
2024/01/04 02:17:00;;;;;;;0.03;0.03;;;;;;;20.95;61.62;98002.69;7393647;19;20458;-58
2024/01/04 02:19:27;;;;;;;0.65;0.30;;;;;;;21.58;60.37;97999.66;7393145;19;20018;-59
2024/01/04 02:21:53;;;;;;;1.05;0.35;;;;;;;23.06;57.09;98006.03;7394759;19;20014;-58
2024/01/04 02:24:20;;;;;;;1.75;0.50;;;;;;;22.93;56.61;98012.97;7392403;19;20015;-58
2024/01/04 02:26:46;;;;;;;1.50;0.35;;;;;;;23.75;54.83;98008.53;7393154;19;20460;-58
2024/01/04 02:29:12;;;;;;;0.57;0.35;;;;;;;24.04;53.17;98006.94;7394205;19;20043;-58
2024/01/04 02:31:39;;;;;;;0.82;0.35;;;;;;;22.92;54.60;98005.03;7392495;19;20018;-59
2024/01/04 02:34:06;;;;;;;0.60;0.32;;;;;;;23.93;53.32;98006.91;7393583;19;20014;-58
2024/01/04 02:36:32;;;;;;;0.30;0.20;;;;;;;24.21;52.80;98008.00;7396243;19;20013;-59
2024/01/04 02:38:59;;;;;;;0.10;0.00;;;;;;;24.45;51.66;98006.69;7393697;19;20014;-58
2024/01/04 02:41:25;;;;;;;1.08;0.40;;;;;;;24.65;51.03;98007.94;7394275;19;20007;-58
2024/01/04 02:43:51;;;;;;;0.10;0.10;;;;;;;24.70;50.58;97996.19;7393859;19;20003;-58
2024/01/04 02:46:18;;;;;;;0.20;0.10;;;;;;;23.12;52.77;98012.09;7392800;19;20054;-58
2024/01/04 02:48:44;;;;;;;0.98;0.30;;;;;;;24.13;52.21;98013.91;7391628;19;20033;-59
2024/01/04 02:51:10;;;;;;;0.10;0.08;;;;;;;22.42;54.53;98028.53;7391927;19;20020;-59
2024/01/04 02:53:36;;;;;;;1.20;0.70;;;;;;;23.94;53.25;98017.66;7392814;19;20029;-58
2024/01/04 02:56:03;;;;;;;0.10;0.10;;;;;;;24.26;52.03;98021.09;7392458;19;20019;-58
2024/01/04 02:58:29;;;;;;;1.98;0.50;;;;;;;22.73;55.91;98022.16;7386297;19;20010;-58
2024/01/04 03:00:55;;;;;;;16.08;0.80;;;;;;;24.22;51.44;98021.59;7388782;19;20085;-59
2024/01/04 03:03:21;;;;;;;3.20;0.25;;;;;;;24.05;51.97;98021.91;7388789;19;20014;-58
2024/01/04 03:05:47;;;;;;;0.10;0.10;;;;;;;23.92;52.33;98026.06;7390188;19;20023;-59
2024/01/04 03:08:14;;;;;;;1.05;0.22;;;;;;;24.07;52.38;98022.78;7387951;19;20015;-59
2024/01/04 03:10:40;;;;;;;0.20;0.10;;;;;;;24.00;52.68;98023.72;7388865;19;20011;-59
2024/01/04 03:13:07;;;;;;;1.02;0.10;;;;;;;24.20;52.40;98029.25;7392769;19;20035;-60
2024/01/04 03:15:33;;;;;;;1.38;0.38;;;;;;;22.94;54.21;98025.03;7392569;19;20011;-59
2024/01/04 03:17:59;;;;;;;0.10;0.10;;;;;;;23.42;53.60;98021.94;7393491;19;20014;-58
2024/01/04 03:20:25;;;;;;;0.73;0.57;;;;;;;24.38;51.48;98027.56;7391548;19;20378;-59
2024/01/04 03:22:51;;;;;;;0.85;0.40;;;;;;;24.47;51.40;98024.59;7391825;19;20481;-59
2024/01/04 03:25:18;;;;;;;0.45;0.38;;;;;;;21.93;55.69;98028.47;7392617;19;20006;-59
2024/01/04 03:27:44;;;;;;;0.15;0.15;;;;;;;22.52;56.10;98037.00;7393156;19;20070;-59
2024/01/04 03:30:11;;;;;;;0.10;0.00;;;;;;;24.20;54.54;98020.72;7395635;19;20025;-59
2024/01/04 03:32:37;;;;;;;0.70;0.40;;;;;;;27.15;45.02;98022.38;7396240;19;20010;-58
2024/01/04 03:35:08;;;;;;;0.10;0.10;;;;;;;24.99;49.47;98024.31;7391852;19;20336;-58
2024/01/04 03:37:34;;;;;;;0.20;0.10;;;;;;;26.54;47.53;98021.22;7391716;19;20030;-59
2024/01/04 03:40:00;;;;;;;0.47;0.10;;;;;;;27.56;43.92;98028.84;7391293;19;20063;-58
2024/01/04 03:42:26;;;;;;;0.45;0.35;;;;;;;24.91;47.37;98032.34;7392033;19;20040;-58
2024/01/04 03:44:52;;;;;;;1.00;0.35;;;;;;;22.77;50.94;98051.56;7391015;19;20374;-59
2024/01/04 03:47:19;;;;;;;0.05;0.05;;;;;;;24.66;48.72;98046.44;7391324;19;20011;-58
2024/01/04 03:49:45;;;;;;;0.10;0.00;;;;;;;24.36;47.78;98047.38;7390649;19;20086;-58
2024/01/04 03:52:11;;;;;;;1.33;0.30;;;;;;;23.35;49.07;98049.22;7390746;19;20081;-58
2024/01/04 03:54:37;;;;;;;0.10;0.10;;;;;;;23.15;50.42;98062.75;7391456;19;20014;-58
2024/01/04 03:57:04;;;;;;;0.20;0.13;;;;;;;23.13;50.39;98064.72;7390323;19;20015;-59
2024/01/04 03:59:30;;;;;;;0.10;0.10;;;;;;;24.70;47.58;98058.06;7390384;19;20007;-58
2024/01/04 04:01:56;;;;;;;0.10;0.05;;;;;;;24.71;46.44;98054.59;7390479;19;20014;-59
2024/01/04 04:04:24;;;;;;;0.52;0.10;;;;;;;25.02;46.02;98054.41;7389554;19;20007;-58
2024/01/04 04:06:50;;;;;;;0.13;0.13;;;;;;;25.38;45.10;98068.00;7391923;19;20021;-58
2024/01/04 04:09:18;;;;;;;0.10;0.10;;;;;;;26.24;43.32;98065.97;7390360;19;20011;-58
2024/01/04 04:11:47;;;;;;;0.10;0.10;;;;;;;26.35;42.70;98062.31;7396530;19;20387;-58
2024/01/04 04:14:13;;;;;;;0.63;0.63;;;;;;;25.45;44.43;98072.75;7397075;19;20098;-58
2024/01/04 04:16:40;;;;;;;0.10;0.10;;;;;;;25.69;43.79;98070.59;7397304;19;20415;-59
2024/01/04 04:19:07;;;;;;;0.20;0.20;;;;;;;24.56;45.08;98082.81;7397146;19;20014;-58
2024/01/04 04:21:34;;;;;;;0.65;0.25;;;;;;;24.39;45.58;98085.97;7398162;19;20462;-58
2024/01/04 04:24:00;;;;;;;0.45;0.10;;;;;;;23.99;45.63;98079.13;7398361;19;20010;-58
2024/01/04 04:26:26;;;;;;;0.10;0.10;;;;;;;23.29;47.27;98085.72;7402992;19;20037;-58
2024/01/04 04:28:52;;;;;;;0.10;0.08;;;;;;;25.34;44.09;98087.72;7396777;19;20022;-58
2024/01/04 04:31:19;;;;;;;0.10;0.10;;;;;;;26.52;41.72;98083.94;7396919;19;20364;-59
2024/01/04 04:33:47;;;;;;;0.15;0.10;;;;;;;27.20;40.52;98092.69;7397186;19;20011;-59
2024/01/04 04:36:14;;;;;;;0.10;0.00;;;;;;;26.76;40.13;98093.88;7402565;19;20454;-59
2024/01/04 04:38:41;;;;;;;0.10;0.08;;;;;;;26.64;40.31;98096.75;7397404;19;20029;-58
2024/01/04 04:41:07;;;;;;;1.05;0.15;;;;;;;25.66;41.29;98102.47;7398613;19;20010;-59
2024/01/04 04:43:34;;;;;;;0.10;0.00;;;;;;;25.69;40.40;98101.19;7397449;19;20402;-58
2024/01/04 04:46:03;;;;;;;0.20;0.20;;;;;;;26.27;39.51;98105.41;7400919;19;20018;-58
2024/01/04 04:48:31;;;;;;;0.10;0.10;;;;;;;26.36;39.44;98106.59;7396420;19;20415;-58
2024/01/04 04:50:57;;;;;;;0.10;0.10;;;;;;;26.24;39.33;98105.91;7396932;19;20014;-58
2024/01/04 04:53:23;;;;;;;0.20;0.10;;;;;;;26.44;38.76;98109.19;7394844;19;20010;-59
2024/01/04 04:55:50;;;;;;;0.28;0.28;;;;;;;26.47;38.79;98107.91;7400987;19;20007;-58
2024/01/04 04:58:16;;;;;;;0.40;0.20;;;;;;;24.77;40.70;98111.97;7398078;19;20037;-59
2024/01/04 05:00:42;;;;;;;0.10;0.10;;;;;;;24.38;41.18;98115.78;7397023;19;20017;-58
2024/01/04 05:03:08;;;;;;;0.30;0.30;;;;;;;24.65;42.17;98118.97;7397262;19;20015;-59
2024/01/04 05:05:34;;;;;;;0.30;0.30;;;;;;;25.95;39.82;98114.16;7397411;19;20089;-58
2024/01/04 05:08:04;;;;;;;0.30;0.20;;;;;;;22.81;44.01;98130.59;7400393;19;20011;-59
2024/01/04 05:10:30;;;;;;;0.75;0.38;;;;;;;22.95;44.36;98125.91;7393830;19;20101;-58
2024/01/04 05:12:58;;;;;;;0.10;0.10;;;;;;;23.47;43.48;98126.78;7395569;19;20011;-58
2024/01/04 05:15:25;;;;;;;0.10;0.08;;;;;;;24.03;42.97;98130.59;7396497;19;20100;-58
2024/01/04 05:17:52;;;;;;;2.85;0.30;;;;;;;24.32;42.64;98129.63;7396024;19;20014;-58
2024/01/04 05:20:18;;;;;;;0.10;0.10;;;;;;;25.61;40.70;98134.94;7400908;19;20513;-59
2024/01/04 05:22:44;;;;;;;0.10;0.10;;;;;;;24.87;41.79;98143.19;7395688;19;20015;-59
2024/01/04 05:25:12;;;;;;;0.10;0.10;;;;;;;27.86;38.53;98133.38;7397856;19;20011;-59
2024/01/04 05:27:38;;;;;;;0.10;0.10;;;;;;;28.10;38.61;98137.50;7395737;19;20015;-58
2024/01/04 05:30:08;;;;;;;6.03;0.52;;;;;;;28.65;37.54;98143.84;7393705;19;20019;-59
2024/01/04 05:32:34;;;;;;;0.10;0.00;;;;;;;29.09;37.15;98145.19;7399533;19;20054;-59
2024/01/04 05:35:00;;;;;;;0.10;0.10;;;;;;;29.10;36.78;98146.69;7396465;19;20017;-59
2024/01/04 05:37:27;;;;;;;0.10;0.10;;;;;;;28.72;36.95;98130.56;7400109;19;20018;-59
2024/01/04 05:39:53;;;;;;;19.30;0.63;;;;;;;30.29;35.23;98126.19;7395343;19;20018;-58
2024/01/04 05:42:19;;;;;;;1.00;0.22;;;;;;;30.59;35.11;98119.56;7393761;19;20011;-59
2024/01/04 05:44:45;;;;;;;0.10;0.10;;;;;;;29.42;35.81;98118.78;7399886;19;20097;-59
2024/01/04 05:47:12;;;;;;;0.10;0.10;;;;;;;29.56;35.48;98130.91;7396378;19;20006;-58
2024/01/04 05:49:38;;;;;;;0.28;0.22;;;;;;;29.90;35.19;98127.44;7392590;19;20038;-58
2024/01/04 05:52:04;;;;;;;0.10;0.00;;;;;;;30.52;34.26;98140.09;7395278;19;20074;-59
2024/01/04 05:54:31;;;;;;;2.85;0.65;;;;;;;30.59;34.33;98131.06;7394916;19;20018;-58
2024/01/04 05:56:57;;;;;;;0.10;0.10;;;;;;;31.26;33.63;98131.56;7397924;19;20490;-59
2024/01/04 05:59:24;;;;;;;0.47;0.32;;;;;;;31.48;33.27;98139.56;7393641;19;20018;-59
2024/01/04 06:01:52;;;;;;;0.10;0.00;;;;;;;31.38;33.04;98140.63;7393765;19;20022;-58
2024/01/04 06:04:18;;;;;;;0.10;0.10;;;;;;;31.79;32.64;98139.28;7392751;19;20007;-58
2024/01/04 06:06:46;;;;;;;0.10;0.10;;;;;;;31.90;32.45;98138.25;7396384;19;20015;-59
2024/01/04 06:09:12;;;;;;;0.43;0.40;;;;;;;31.68;32.49;98146.06;7396883;19;20347;-58
2024/01/04 06:11:38;;;;;;;0.30;0.30;;;;;;;31.61;32.60;98148.00;7392879;19;20022;-58
2024/01/04 06:14:05;;;;;;;0.40;0.40;;;;;;;31.21;32.77;98150.06;7393862;19;20011;-59
2024/01/04 06:16:32;;;;;;;0.10;0.10;;;;;;;30.90;32.89;98147.41;7394623;19;20081;-57
2024/01/04 06:18:59;;;;;;;0.57;0.10;;;;;;;30.43;33.66;98164.16;7392207;19;20010;-58
2024/01/04 06:21:25;;;;;;;0.93;0.38;;;;;;;29.58;34.73;98157.56;7392836;19;20013;-50
2024/01/04 06:23:51;;;;;;;0.10;0.10;;;;;;;29.23;34.47;98160.22;7392541;19;20021;-52
2024/01/04 06:26:18;;;;;;;0.25;0.17;;;;;;;28.78;35.15;98150.91;7394634;19;20084;-51
2024/01/04 06:28:45;;;;;;;0.25;0.20;;;;;;;28.89;34.61;98164.34;7392760;19;20390;-51
2024/01/04 06:31:11;;;;;;;3.45;1.27;;;;;;;30.11;33.88;98162.72;7392681;19;20014;-50
2024/01/04 06:33:38;;;;;;;1.05;0.52;;;;;;;30.31;33.34;98160.75;7392375;19;20017;-50
2024/01/04 06:36:05;;;;;;;3.03;0.60;;;;;;;30.53;32.94;98165.31;7394318;19;20032;-51
2024/01/04 06:38:34;;;;;;;2.53;0.73;;;;;;;31.09;32.25;98166.84;7393490;19;20018;-52
2024/01/04 06:41:00;;;;;;;0.10;0.10;;;;;;;29.98;32.94;98153.59;7394406;19;20485;-50
2024/01/04 06:43:27;;;;;;;0.63;0.63;;;;;;;28.44;34.22;98162.13;7393567;19;20455;-51
2024/01/04 06:45:53;;;;;;;0.10;0.10;;;;;;;28.41;34.53;98162.69;7392101;19;20007;-50
2024/01/04 06:48:19;;;;;;;0.10;0.05;;;;;;;30.69;32.67;98162.34;7391396;19;20437;-51
2024/01/04 06:50:45;;;;;;;0.10;0.03;;;;;;;29.31;33.85;98166.34;7393804;19;20011;-50
2024/01/04 06:53:14;;;;;;;0.90;0.73;;;;;;;30.73;32.24;98154.63;7392211;19;20010;-50
2024/01/04 06:55:40;;;;;;;0.17;0.17;;;;;;;31.00;31.69;98162.19;7393575;19;20032;-51
2024/01/04 06:58:09;;;;;;;1.00;0.40;;;;;;;30.96;31.78;98162.03;7392381;19;20522;-51
2024/01/04 07:00:36;;;;;;;0.10;0.10;;;;;;;29.64;32.69;98162.81;7392639;19;20399;-51
2024/01/04 07:03:03;;;;;;;0.30;0.30;;;;;;;27.78;34.58;98175.88;7393244;19;20085;-51
2024/01/04 07:05:30;;;;;;;0.20;0.20;;;;;;;27.09;35.49;98173.53;7392020;19;20014;-50
2024/01/04 07:07:56;;;;;;;3.08;0.50;;;;;;;26.35;36.47;98175.75;7390786;19;20017;-51
2024/01/04 07:10:22;;;;;;;0.10;0.10;;;;;;;26.58;36.78;98175.66;7391643;19;20381;-50
2024/01/04 07:12:49;;;;;;;0.10;0.10;;;;;;;26.75;36.61;98178.06;7391559;19;20027;-51
2024/01/04 07:15:15;;;;;;;0.63;0.50;;;;;;;28.56;35.19;98182.03;7391308;19;20356;-51
2024/01/04 07:17:41;;;;;;;1.05;0.70;;;;;;;27.37;35.89;98180.84;7390849;19;20372;-51
2024/01/04 07:20:09;;;;;;;0.10;0.00;;;;;;;27.36;35.93;98182.94;7393235;19;20458;-51
2024/01/04 07:22:35;;;;;;;0.65;0.22;;;;;;;26.90;36.38;98183.97;7390367;19;20390;-50
2024/01/04 07:25:02;;;;;;;0.30;0.30;;;;;;;26.59;36.79;98195.03;7391351;19;20011;-50
2024/01/04 07:27:29;;;;;;;0.17;0.10;;;;;;;26.47;37.15;98191.47;7391090;19;20354;-50
2024/01/04 07:29:57;;;;;;;0.10;0.10;;;;;;;27.03;36.34;98191.84;7389988;19;20025;-51
2024/01/04 07:32:23;;;;;;;0.10;0.10;;;;;;;26.63;36.77;98198.09;7396218;19;20022;-51
2024/01/04 07:34:50;;;;;;;0.80;0.80;;;;;;;26.60;36.67;98201.47;7390123;19;20458;-50
2024/01/04 07:37:16;;;;;;;0.57;0.38;;;;;;;26.54;36.89;98193.28;7397279;19;20010;-51
2024/01/04 07:39:43;;;;;;;5.05;0.95;;;;;;;26.35;36.81;98213.59;7391449;19;20003;-50
2024/01/04 07:42:09;;;;;;;0.13;0.13;;;;;;;26.58;36.81;98198.50;7393742;19;20023;-51
2024/01/04 07:44:35;;;;;;;3.50;0.52;;;;;;;26.74;36.70;98208.78;7392385;19;20098;-50
2024/01/04 07:47:02;;;;;;;0.47;0.45;;;;;;;27.01;36.49;98206.00;7399261;19;20015;-50
2024/01/04 07:49:28;;;;;;;0.52;0.52;;;;;;;26.77;36.80;98215.31;7396290;19;20009;-51
2024/01/04 07:51:54;;;;;;;1.08;0.40;;;;;;;26.90;36.54;98211.78;7399421;19;20342;-51
2024/01/04 07:54:20;;;;;;;0.20;0.20;;;;;;;26.92;36.50;98215.50;7398209;19;20413;-51
2024/01/04 07:56:47;;;;;;;0.20;0.20;;;;;;;26.97;36.27;98222.94;7397007;19;20363;-51
2024/01/04 07:59:13;;;;;;;3.03;0.45;;;;;;;27.21;35.46;98217.81;7397590;19;20010;-51
2024/01/04 08:01:39;;;;;;;0.10;0.10;;;;;;;27.23;35.42;98220.03;7399283;19;20021;-51
2024/01/04 08:04:06;;;;;;;0.10;0.10;;;;;;;26.53;35.97;98214.63;7402333;19;20036;-51
2024/01/04 08:06:32;;;;;;;0.50;0.47;;;;;;;27.01;35.31;98216.69;7401910;19;20021;-50
2024/01/04 08:08:58;;;;;;;0.10;0.10;;;;;;;27.57;34.30;98213.38;7398892;19;20462;-50
2024/01/04 08:11:24;;;;;;;0.10;0.10;;;;;;;27.87;34.17;98212.13;7398993;19;20467;-51
2024/01/04 08:13:51;;;;;;;0.10;0.10;;;;;;;27.38;34.14;98208.03;7398712;19;20089;-51
2024/01/04 08:16:18;;;;;;;0.15;0.15;;;;;;;27.16;34.41;98221.09;7399080;19;20041;-50
2024/01/04 08:18:44;;;;;;;1.17;0.43;;;;;;;27.16;34.25;98215.38;7398154;19;20017;-54
2024/01/04 08:21:11;;;;;;;4.65;0.43;;;;;;;26.44;34.62;98224.13;7399913;19;20018;-51
2024/01/04 08:23:41;;;;;;;0.15;0.15;;;;;;;26.87;34.16;98230.94;7398036;19;20003;-51
2024/01/04 08:26:08;;;;;;;0.20;0.15;;;;;;;26.87;34.09;98225.22;7397538;19;20088;-51
2024/01/04 08:28:36;;;;;;;0.88;0.25;;;;;;;27.15;34.30;98223.22;7401315;19;20017;-50
2024/01/04 08:31:03;;;;;;;20.73;1.23;;;;;;;27.00;33.82;98221.69;7397894;19;20074;-51
2024/01/04 08:33:29;;;;;;;0.10;0.10;;;;;;;27.43;33.79;98227.66;7395530;19;20019;-51
2024/01/04 08:35:55;;;;;;;0.47;0.43;;;;;;;26.81;33.52;98219.16;7398446;19;20018;-51
2024/01/04 08:38:22;;;;;;;0.22;0.22;;;;;;;27.07;33.69;98219.16;7396729;19;20016;-51
2024/01/04 08:40:48;;;;;;;2.38;1.15;;;;;;;26.67;33.45;98217.59;7397367;19;20007;-51
2024/01/04 08:43:14;;;;;;;2.15;0.45;;;;;;;26.79;33.18;98221.16;7396125;19;20454;-51
2024/01/04 08:45:40;;;;;;;0.20;0.20;;;;;;;25.42;34.78;98222.22;7396307;19;20373;-51
2024/01/04 08:48:06;;;;;;;0.30;0.30;;;;;;;28.84;32.80;98214.22;7397068;19;20031;-50
2024/01/04 08:50:32;;;;;;;2.05;0.40;;;;;;;26.22;34.21;98229.28;7394944;19;20013;-51
2024/01/04 08:52:58;;;;;;;3.47;1.27;;;;;;;25.94;34.25;98227.56;7397428;19;20015;-51
2024/01/04 08:55:25;;;;;;;2.22;0.75;;;;;;;25.58;34.79;98227.44;7396660;19;20573;-51
2024/01/04 08:57:51;;;;;;;0.20;0.20;;;;;;;25.76;34.58;98223.59;7396036;19;20014;-51
2024/01/04 09:00:17;;;;;;;0.63;0.47;;;;;;;25.78;34.11;98235.13;7396028;19;20010;-51
2024/01/04 09:02:45;;;;;;;5.25;0.45;;;;;;;26.09;33.75;98234.88;7396305;19;20018;-50
2024/01/04 09:05:12;;;;;;;1.95;0.55;;;;;;;25.55;34.51;98238.69;7396840;19;20014;-50
2024/01/04 09:07:38;;;;;;;0.10;0.10;;;;;;;25.84;33.90;98232.63;7397692;19;20007;-50
2024/01/04 09:10:05;;;;;;;0.15;0.15;;;;;;;25.44;34.42;98236.59;7395947;19;20090;-55
2024/01/04 09:12:31;;;;;;;3.10;0.52;;;;;;;25.77;33.99;98236.50;7397301;19;20041;-61
2024/01/04 09:14:58;;;;;;;0.20;0.20;;;;;;;25.73;33.87;98238.34;7396900;19;20093;-51
2024/01/04 09:17:25;;;;;;;0.38;0.38;;;;;;;26.28;33.85;98234.59;7396701;19;20011;-51
2024/01/04 09:19:52;;;;;;;0.20;0.13;;;;;;;25.21;34.85;98239.38;7397857;19;20045;-51
2024/01/04 09:22:18;;;;;;;0.70;0.60;;;;;;;25.70;34.36;98239.59;7396519;19;20401;-50
2024/01/04 09:24:44;;;;;;;0.10;0.10;;;;;;;25.88;33.95;98237.84;7396716;19;20018;-51
2024/01/04 09:27:13;;;;;;;0.50;0.50;;;;;;;25.77;34.26;98239.34;7395854;19;20014;-50
2024/01/04 09:29:39;;;;;;;0.60;0.30;;;;;;;25.36;34.23;98241.03;7393903;19;20010;-50
2024/01/04 09:32:05;;;;;;;0.52;0.52;;;;;;;25.69;34.17;98243.78;7399470;19;20096;-51
2024/01/04 09:34:31;;;;;;;0.98;0.80;;;;;;;25.17;34.61;98247.66;7395085;19;20010;-50
2024/01/04 09:36:58;;;;;;;1.27;0.30;;;;;;;25.49;34.88;98249.00;7397508;19;20458;-50
2024/01/04 09:39:25;;;;;;;0.13;0.13;;;;;;;25.52;34.57;98256.31;7395015;19;20010;-51
2024/01/04 09:41:52;;;;;;;0.20;0.20;;;;;;;28.28;32.23;98247.25;7395420;19;20016;-55
2024/01/04 09:44:19;;;;;;;2.10;0.90;;;;;;;27.76;32.41;98248.03;7399166;19;20357;-51
2024/01/04 09:46:47;;;;;;;2.05;0.52;;;;;;;27.79;32.53;98246.03;7395473;19;20492;-51
2024/01/04 09:49:13;;;;;;;0.20;0.20;;;;;;;27.86;32.50;98241.38;7395641;19;20014;-51
2024/01/04 09:51:42;;;;;;;0.68;0.30;;;;;;;27.24;33.00;98250.13;7393146;19;20510;-51
2024/01/04 09:54:10;;;;;;;0.47;0.25;;;;;;;27.77;32.53;98255.25;7395233;19;20102;-52
2024/01/04 09:56:42;;;;;;;0.10;0.10;;;;;;;28.16;32.31;98260.16;7399099;19;20462;-49
2024/01/04 09:59:09;;;;;;;0.20;0.10;;;;;;;28.08;32.40;98254.03;7395345;19;20450;-50
2024/01/04 10:01:37;;;;;;;2.10;1.27;;;;;;;28.17;32.51;98250.97;7393843;19;20011;-50
2024/01/04 10:04:16;;;;;;;4.10;1.73;;;;;;;28.24;32.64;98249.88;7395764;19;20044;-50
2024/01/04 10:06:44;;;;;;;5.57;1.33;;;;;;;28.37;32.80;98257.72;7397367;19;20018;-50
2024/01/04 10:09:28;;;;;;;0.20;0.20;;;;;;;28.68;32.34;98244.94;7391533;19;20003;-50
2024/01/04 10:11:57;;;;;;;0.30;0.13;;;;;;;28.61;32.85;98246.03;7395545;19;20011;-50
2024/01/04 10:14:24;;;;;;;1.95;0.47;;;;;;;29.05;32.26;98251.09;7394555;19;20051;-51
2024/01/04 10:16:51;;;;;;;0.10;0.10;;;;;;;29.00;32.31;98252.28;7394153;19;20011;-51
2024/01/04 10:19:18;;;;;;;0.10;0.10;;;;;;;27.67;33.16;98253.97;7395259;19;20015;-51
2024/01/04 10:21:45;;;;;;;3.70;1.08;;;;;;;26.85;34.24;98256.53;7394449;19;20037;-53
2024/01/04 10:24:14;;;;;;;15.60;1.30;;;;;;;27.52;34.02;98269.63;7394512;19;20007;-51
2024/01/04 10:26:42;;;;;;;0.85;0.55;;;;;;;26.95;34.28;98265.69;7394494;19;20007;-50
2024/01/04 10:29:08;;;;;;;9.25;0.95;;;;;;;27.53;34.16;98262.50;7392609;19;20561;-50
2024/01/04 10:31:35;;;;;;;0.30;0.28;;;;;;;27.26;34.47;98270.25;7395230;19;20026;-51
2024/01/04 10:34:02;;;;;;;1.30;1.10;;;;;;;26.90;34.66;98268.91;7392737;19;20007;-50
2024/01/04 10:36:28;;;;;;;0.38;0.30;;;;;;;27.04;34.55;98267.63;7396229;19;20070;-51
2024/01/04 10:38:59;;;;;;;0.30;0.20;;;;;;;27.37;34.41;98263.75;7392686;19;20011;-51
2024/01/04 10:41:28;;;;;;;0.17;0.17;;;;;;;26.64;34.50;98262.41;7394558;19;20015;-51
2024/01/04 10:44:07;;;;;;;0.10;0.10;;;;;;;26.52;34.89;98273.13;7396451;19;20570;-50
2024/01/04 10:46:35;;;;;;;10.32;1.00;;;;;;;26.48;34.71;98275.00;7393849;19;20034;-51
2024/01/04 10:49:02;;;;;;;0.35;0.35;;;;;;;26.42;35.19;98275.41;7394640;19;20010;-51
2024/01/04 10:51:32;;;;;;;0.57;0.45;;;;;;;26.66;34.83;98268.25;7392059;19;20362;-51
2024/01/04 10:54:01;;;;;;;2.78;0.68;;;;;;;27.08;34.30;98260.66;7390172;19;20086;-51
2024/01/04 10:56:30;;;;;;;14.40;0.88;;;;;;;26.68;35.22;98270.50;7390342;19;20018;-51
2024/01/04 10:58:58;;;;;;;0.10;0.10;;;;;;;28.04;34.11;98254.56;7388365;19;20037;-51
2024/01/04 11:01:25;;;;;;;1.75;0.57;;;;;;;27.55;33.96;98259.03;7387747;19;20034;-51
2024/01/04 11:03:55;;;;;;;1.25;0.20;;;;;;;27.45;34.41;98249.91;7388439;19;20010;-51
2024/01/04 11:06:23;;;;;;;0.22;0.22;;;;;;;26.96;34.87;98255.00;7391742;19;20047;-51
2024/01/04 11:08:50;;;;;;;0.10;0.10;;;;;;;28.07;33.94;98246.84;7390736;19;20015;-52
2024/01/04 11:11:18;;;;;;;8.48;1.65;;;;;;;28.86;32.85;98248.72;7391600;19;20268;-51
2024/01/04 11:13:45;;;;;;;0.63;0.63;;;;;;;29.38;32.63;98245.56;7392625;19;20162;-51
2024/01/04 11:16:37;;;;;;;0.35;0.35;;;;;;;28.85;32.83;98247.22;7394094;19;20017;-52
2024/01/04 11:19:49;;;;;;;6.03;0.30;;;;;;;29.51;32.16;98236.13;7391107;19;20078;-52
2024/01/04 11:22:49;;;;;;;0.40;0.40;;;;;;;29.33;32.28;98243.13;7389859;19;20461;-51
2024/01/04 11:25:47;;;;;;;0.20;0.20;;;;;;;29.31;32.23;98240.16;7389587;19;20010;-52
2024/01/04 11:28:14;;;;;;;0.20;0.20;;;;;;;28.54;32.63;98230.66;7392302;19;20019;-51
2024/01/04 11:30:40;;;;;;;0.30;0.30;;;;;;;28.72;32.12;98237.28;7389012;19;20085;-51
2024/01/04 11:33:06;;;;;;;0.10;0.08;;;;;;;28.90;32.33;98237.44;7391808;19;20025;-51